createdAt,value
2018-07-08T00:01:49.416Z,0.00
2018-07-08T00:02:49.243Z,0.00
2018-07-08T00:04:42.541Z,0.00
2018-07-08T00:05:42.454Z,0.00
2018-07-08T00:07:35.729Z,0.00
2018-07-08T00:08:35.666Z,0.00
2018-07-08T00:10:28.958Z,0.00
2018-07-08T00:11:28.874Z,0.00
2018-07-08T00:13:22.147Z,0.00
2018-07-08T00:14:22.085Z,0.00
2018-07-08T00:16:15.377Z,0.00
2018-07-08T00:17:15.297Z,0.00
2018-07-08T00:19:08.588Z,0.00
2018-07-08T00:20:08.506Z,0.00
2018-07-08T00:22:01.778Z,0.00
2018-07-08T00:23:01.715Z,0.00
2018-07-08T00:24:55.008Z,0.00
2018-07-08T00:25:54.925Z,0.00
2018-07-08T00:27:48.188Z,0.00
2018-07-08T00:28:48.123Z,0.00
2018-07-08T00:30:41.424Z,0.00
2018-07-08T00:31:41.332Z,0.00
2018-07-08T00:33:34.607Z,0.00
2018-07-08T00:34:34.541Z,0.00
2018-07-08T00:36:27.833Z,0.00
2018-07-08T00:37:27.754Z,0.00
2018-07-08T00:39:21.052Z,0.00
2018-07-08T00:40:20.959Z,0.00
2018-07-08T00:42:14.462Z,0.00
2018-07-08T00:43:14.398Z,0.00
2018-07-08T00:45:07.687Z,0.00
2018-07-08T00:46:07.606Z,0.00
2018-07-08T00:48:00.871Z,0.00
2018-07-08T00:49:00.805Z,0.00
2018-07-08T00:50:54.099Z,0.00
2018-07-08T00:51:54.014Z,0.00
2018-07-08T00:53:47.291Z,0.00
2018-07-08T00:54:47.223Z,0.00
2018-07-08T00:56:40.621Z,0.00
2018-07-08T00:57:40.432Z,0.00
2018-07-08T00:59:33.705Z,0.00
2018-07-08T01:00:33.642Z,0.00
2018-07-08T01:02:26.927Z,0.00
2018-07-08T01:03:26.850Z,0.00
2018-07-08T01:05:20.143Z,0.00
2018-07-08T01:06:20.059Z,0.00
2018-07-08T01:08:13.325Z,0.00
2018-07-08T01:09:13.259Z,0.00
2018-07-08T01:11:06.551Z,0.00
2018-07-08T01:12:06.466Z,0.00
2018-07-08T01:13:59.740Z,0.00
2018-07-08T01:14:59.675Z,0.00
2018-07-08T01:16:52.968Z,0.00
2018-07-08T01:17:52.882Z,0.00
2018-07-08T01:19:46.146Z,0.00
2018-07-08T01:20:46.083Z,0.00
2018-07-08T01:22:39.375Z,0.00
2018-07-08T01:23:39.293Z,0.00
2018-07-08T01:25:32.585Z,0.00
2018-07-08T01:26:32.501Z,0.00
2018-07-08T01:28:25.762Z,0.00
2018-07-08T01:29:25.697Z,0.00
2018-07-08T01:31:18.989Z,0.00
2018-07-08T01:32:18.905Z,0.00
2018-07-08T01:34:12.178Z,0.00
2018-07-08T01:35:12.113Z,0.00
2018-07-08T01:37:05.409Z,0.00
2018-07-08T01:38:05.325Z,0.00
2018-07-08T01:39:58.598Z,0.00
2018-07-08T01:40:58.534Z,0.00
2018-07-08T01:42:51.826Z,0.00
2018-07-08T01:43:51.741Z,0.00
2018-07-08T01:45:45.014Z,0.00
2018-07-08T01:46:44.951Z,0.00
2018-07-08T01:48:38.244Z,0.00
2018-07-08T01:49:38.161Z,0.00
2018-07-08T01:51:31.453Z,0.00
2018-07-08T01:52:31.368Z,0.00
2018-07-08T01:54:24.644Z,0.00
2018-07-08T01:55:24.575Z,0.00
2018-07-08T01:57:17.859Z,0.00
2018-07-08T01:58:17.774Z,0.00
2018-07-08T02:00:11.050Z,0.00
2018-07-08T02:01:10.981Z,0.00
2018-07-08T02:03:04.480Z,0.00
2018-07-08T02:04:04.398Z,0.00
2018-07-08T02:05:57.672Z,0.00
2018-07-08T02:06:57.635Z,0.00
2018-07-08T02:08:50.898Z,0.00
2018-07-08T02:09:50.811Z,0.00
2018-07-08T02:11:44.607Z,0.00
2018-07-08T02:12:44.018Z,0.00
2018-07-08T02:14:37.288Z,0.00
2018-07-08T02:15:37.222Z,0.00
2018-07-08T02:17:30.513Z,0.00
2018-07-08T02:18:30.432Z,0.00
2018-07-08T02:20:23.706Z,0.00
2018-07-08T02:21:23.639Z,0.00
2018-07-08T02:23:16.930Z,0.00
2018-07-08T02:24:16.846Z,0.00
2018-07-08T02:26:10.119Z,0.00
2018-07-08T02:27:10.055Z,0.00
2018-07-08T02:29:03.345Z,0.00
2018-07-08T02:30:03.268Z,0.00
2018-07-08T02:31:56.659Z,4.00
2018-07-08T02:32:56.470Z,4.00
2018-07-08T02:34:50.741Z,0.00
2018-07-08T02:35:50.690Z,4.00
2018-07-08T02:37:43.967Z,4.00
2018-07-08T02:38:43.875Z,0.00
2018-07-08T02:40:37.256Z,4.00
2018-07-08T02:41:37.083Z,4.00
2018-07-08T02:43:30.375Z,8.00
2018-07-08T02:44:30.292Z,8.00
2018-07-08T02:46:23.565Z,8.00
2018-07-08T02:47:23.500Z,8.00
2018-07-08T02:49:16.791Z,12.00
2018-07-08T02:50:16.708Z,12.00
2018-07-08T02:52:10.001Z,16.00
2018-07-08T02:53:09.917Z,16.00
2018-07-08T02:55:03.191Z,20.00
2018-07-08T02:56:03.124Z,24.00
2018-07-08T02:57:56.408Z,28.00
2018-07-08T02:58:56.323Z,32.00
2018-07-08T03:00:49.594Z,40.00
2018-07-08T03:01:49.529Z,44.00
2018-07-08T03:03:42.820Z,56.00
2018-07-08T03:04:42.734Z,60.00
2018-07-08T03:06:36.008Z,68.00
2018-07-08T03:07:35.945Z,76.00
2018-07-08T03:09:29.231Z,88.00
2018-07-08T03:10:29.149Z,100.00
2018-07-08T03:12:22.422Z,116.00
2018-07-08T03:13:22.364Z,124.00
2018-07-08T03:15:15.754Z,144.00
2018-07-08T03:16:15.577Z,152.00
2018-07-08T03:18:08.846Z,172.00
2018-07-08T03:19:08.762Z,188.00
2018-07-08T03:21:02.158Z,212.00
2018-07-08T03:22:01.973Z,228.00
2018-07-08T03:23:55.239Z,264.00
2018-07-08T03:24:55.177Z,284.00
2018-07-08T03:26:48.464Z,324.00
2018-07-08T03:27:48.383Z,344.00
2018-07-08T03:29:41.672Z,388.00
2018-07-08T03:30:41.589Z,412.00
2018-07-08T03:32:34.969Z,460.00
2018-07-08T03:33:34.839Z,488.00
2018-07-08T03:35:28.090Z,532.00
2018-07-08T03:36:28.003Z,556.00
2018-07-08T03:38:21.296Z,608.00
2018-07-08T03:39:21.209Z,636.00
2018-07-08T03:41:14.474Z,692.00
2018-07-08T03:42:14.409Z,716.00
2018-07-08T03:44:07.699Z,768.00
2018-07-08T03:45:07.616Z,800.00
2018-07-08T03:47:00.890Z,852.00
2018-07-08T03:48:00.823Z,880.00
2018-07-08T03:49:54.112Z,936.00
2018-07-08T03:50:54.028Z,960.00
2018-07-08T03:52:49.289Z,1012.00
2018-07-08T03:53:49.224Z,1040.00
2018-07-08T03:55:42.518Z,1088.00
2018-07-08T03:56:42.436Z,1116.00
2018-07-08T03:58:35.725Z,1164.00
2018-07-08T03:59:35.632Z,1188.00
2018-07-08T04:01:28.902Z,1244.00
2018-07-08T04:02:28.838Z,1272.00
2018-07-08T04:04:22.163Z,1320.00
2018-07-08T04:05:22.041Z,1344.00
2018-07-08T04:07:15.317Z,1392.00
2018-07-08T04:08:15.252Z,1420.00
2018-07-08T04:10:08.546Z,1464.00
2018-07-08T04:11:08.509Z,1492.00
2018-07-08T04:13:01.735Z,1532.00
2018-07-08T04:14:01.668Z,1556.00
2018-07-08T04:15:54.959Z,1608.00
2018-07-08T04:16:54.875Z,1628.00
2018-07-08T04:18:48.255Z,1676.00
2018-07-08T04:19:48.081Z,1696.00
2018-07-08T04:21:41.377Z,1732.00
2018-07-08T04:22:41.289Z,1752.00
2018-07-08T04:24:34.687Z,1804.00
2018-07-08T04:25:34.497Z,1824.00
2018-07-08T04:27:27.877Z,1872.00
2018-07-08T04:28:27.705Z,1896.00
2018-07-08T04:30:21.037Z,1944.00
2018-07-08T04:31:20.913Z,1972.00
2018-07-08T04:33:14.184Z,2016.00
2018-07-08T04:34:14.120Z,2036.00
2018-07-08T04:36:07.410Z,2068.00
2018-07-08T04:37:07.326Z,2096.00
2018-07-08T04:39:00.599Z,2136.00
2018-07-08T04:40:00.534Z,2164.00
2018-07-08T04:41:53.825Z,2192.00
2018-07-08T04:42:53.741Z,2204.00
2018-07-08T04:44:47.034Z,2236.00
2018-07-08T04:45:46.955Z,2260.00
2018-07-08T04:47:40.220Z,2304.00
2018-07-08T04:48:40.157Z,2320.00
2018-07-08T04:50:33.446Z,2340.00
2018-07-08T04:51:33.363Z,2360.00
2018-07-08T04:53:26.636Z,2400.00
2018-07-08T04:54:26.571Z,2420.00
2018-07-08T04:56:19.864Z,2480.00
2018-07-08T04:57:19.779Z,2484.00
2018-07-08T04:59:13.052Z,2492.00
2018-07-08T05:00:12.990Z,2512.00
2018-07-08T05:02:06.402Z,2536.00
2018-07-08T05:03:06.275Z,2552.00
2018-07-08T05:04:59.568Z,2596.00
2018-07-08T05:05:59.484Z,2612.00
2018-07-08T05:07:52.767Z,2652.00
2018-07-08T05:08:52.682Z,2664.00
2018-07-08T05:10:45.975Z,2684.00
2018-07-08T05:11:45.892Z,2672.00
2018-07-08T05:13:39.164Z,2712.00
2018-07-08T05:14:39.094Z,2708.00
2018-07-08T05:16:32.392Z,2684.00
2018-07-08T05:17:32.312Z,2704.00
2018-07-08T05:19:25.582Z,2728.00
2018-07-08T05:20:25.530Z,2744.00
2018-07-08T05:22:18.807Z,2716.00
2018-07-08T05:23:18.726Z,2728.00
2018-07-08T05:25:12.002Z,2704.00
2018-07-08T05:26:11.937Z,2688.00
2018-07-08T05:28:05.218Z,2664.00
2018-07-08T05:29:05.136Z,2664.00
2018-07-08T05:30:58.430Z,2668.00
2018-07-08T05:31:58.350Z,2672.00
2018-07-08T05:33:51.624Z,2688.00
2018-07-08T05:34:51.557Z,2656.00
2018-07-08T05:36:44.851Z,2700.00
2018-07-08T05:37:44.767Z,2756.00
2018-07-08T05:39:38.046Z,2732.00
2018-07-08T05:40:37.978Z,2740.00
2018-07-08T05:42:31.272Z,2748.00
2018-07-08T05:43:31.188Z,2788.00
2018-07-08T05:45:24.465Z,2808.00
2018-07-08T05:46:24.397Z,2824.00
2018-07-08T05:48:17.681Z,2820.00
2018-07-08T05:49:17.600Z,2852.00
2018-07-08T05:51:10.899Z,2860.00
2018-07-08T05:52:10.810Z,2896.00
2018-07-08T05:54:04.089Z,2948.00
2018-07-08T05:55:04.020Z,2952.00
2018-07-08T05:56:57.420Z,2948.00
2018-07-08T05:57:57.231Z,2944.00
2018-07-08T05:59:50.506Z,2908.00
2018-07-08T06:00:50.443Z,2924.00
2018-07-08T06:02:43.736Z,2948.00
2018-07-08T06:03:43.654Z,2976.00
2018-07-08T06:05:36.930Z,2960.00
2018-07-08T06:06:36.869Z,2964.00
2018-07-08T06:08:30.161Z,3172.00
2018-07-08T06:09:30.080Z,3328.00
2018-07-08T06:11:23.376Z,3148.00
2018-07-08T06:12:23.291Z,3260.00
2018-07-08T06:14:16.567Z,3400.00
2018-07-08T06:15:16.536Z,3704.00
2018-07-08T06:17:09.798Z,4144.00
2018-07-08T06:18:09.755Z,4172.00
2018-07-08T06:20:02.992Z,4676.00
2018-07-08T06:21:02.931Z,5720.00
2018-07-08T06:22:56.330Z,8460.00
2018-07-08T06:23:56.146Z,8792.00
2018-07-08T06:25:49.438Z,9060.00
2018-07-08T06:26:49.371Z,8968.00
2018-07-08T06:28:42.664Z,8900.00
2018-07-08T06:29:42.592Z,9032.00
2018-07-08T06:31:35.959Z,8888.00
2018-07-08T06:32:35.828Z,8724.00
2018-07-08T06:34:29.127Z,5664.00
2018-07-08T06:35:29.069Z,8452.00
2018-07-08T06:37:22.383Z,8728.00
2018-07-08T06:38:22.314Z,8560.00
2018-07-08T06:40:15.709Z,8644.00
2018-07-08T06:41:15.561Z,8828.00
2018-07-08T06:43:08.974Z,5360.00
2018-07-08T06:44:08.808Z,8488.00
2018-07-08T06:46:02.704Z,8272.00
2018-07-08T06:47:02.062Z,6576.00
2018-07-08T06:48:55.380Z,8304.00
2018-07-08T06:49:55.308Z,8092.00
2018-07-08T06:51:48.707Z,4916.00
2018-07-08T06:52:48.561Z,7864.00
2018-07-08T06:54:41.881Z,7828.00
2018-07-08T06:55:41.811Z,7080.00
2018-07-08T06:57:36.133Z,7736.00
2018-07-08T06:58:36.066Z,3640.00
2018-07-08T07:00:29.366Z,7660.00
2018-07-08T07:01:29.317Z,7400.00
2018-07-08T07:03:22.635Z,7524.00
2018-07-08T07:04:22.569Z,4248.00
2018-07-08T07:06:16.869Z,7432.00
2018-07-08T07:07:16.821Z,7480.00
2018-07-08T07:09:10.139Z,7340.00
2018-07-08T07:10:10.071Z,7348.00
2018-07-08T07:12:03.375Z,7356.00
2018-07-08T07:13:03.324Z,7412.00
2018-07-08T07:14:56.646Z,7620.00
2018-07-08T07:15:56.583Z,7840.00
2018-07-08T07:17:49.875Z,7580.00
2018-07-08T07:18:49.824Z,7448.00
2018-07-08T07:20:43.147Z,7232.00
2018-07-08T07:21:43.080Z,7264.00
2018-07-08T07:23:36.403Z,7428.00
2018-07-08T07:24:36.335Z,7436.00
2018-07-08T07:26:29.637Z,7452.00
2018-07-08T07:27:29.588Z,7404.00
2018-07-08T07:29:22.914Z,7444.00
2018-07-08T07:30:22.847Z,7416.00
2018-07-08T07:32:16.151Z,7332.00
2018-07-08T07:33:16.100Z,7320.00
2018-07-08T07:35:09.425Z,7428.00
2018-07-08T07:36:09.354Z,7496.00
2018-07-08T07:38:02.655Z,7668.00
2018-07-08T07:39:02.599Z,7744.00
2018-07-08T07:40:55.918Z,7680.00
2018-07-08T07:41:55.853Z,7692.00
2018-07-08T07:43:49.171Z,7720.00
2018-07-08T07:44:49.101Z,7872.00
2018-07-08T07:46:42.402Z,8092.00
2018-07-08T07:47:42.352Z,8164.00
2018-07-08T07:49:35.670Z,8264.00
2018-07-08T07:50:35.601Z,8268.00
2018-07-08T07:52:28.900Z,8332.00
2018-07-08T07:53:28.851Z,8344.00
2018-07-08T07:55:23.167Z,8420.00
2018-07-08T07:56:23.098Z,8352.00
2018-07-08T07:58:16.409Z,8308.00
2018-07-08T07:59:16.337Z,8396.00
2018-07-08T08:01:09.655Z,8476.00
2018-07-08T08:02:09.583Z,8392.00
2018-07-08T08:04:02.903Z,8212.00
2018-07-08T08:05:02.836Z,8376.00
2018-07-08T08:06:56.231Z,8348.00
2018-07-08T08:07:56.082Z,8320.00
2018-07-08T08:09:49.400Z,8260.00
2018-07-08T08:10:49.348Z,8252.00
2018-07-08T08:12:42.637Z,8132.00
2018-07-08T08:13:42.573Z,8040.00
2018-07-08T08:15:35.890Z,7844.00
2018-07-08T08:16:35.818Z,7820.00
2018-07-08T08:18:29.107Z,7828.00
2018-07-08T08:19:29.054Z,7792.00
2018-07-08T08:21:22.371Z,7716.00
2018-07-08T08:22:22.300Z,7640.00
2018-07-08T08:24:15.613Z,7556.00
2018-07-08T08:25:15.543Z,7544.00
2018-07-08T08:27:08.935Z,7524.00
2018-07-08T08:28:08.784Z,7504.00
2018-07-08T08:30:02.100Z,7496.00
2018-07-08T08:31:02.025Z,7496.00
2018-07-08T08:32:55.323Z,7428.00
2018-07-08T08:33:55.267Z,7364.00
2018-07-08T08:35:48.579Z,7232.00
2018-07-08T08:36:48.506Z,7240.00
2018-07-08T08:38:41.801Z,7196.00
2018-07-08T08:39:41.748Z,7220.00
2018-07-08T08:41:35.052Z,7176.00
2018-07-08T08:42:34.984Z,7176.00
2018-07-08T08:44:28.348Z,7204.00
2018-07-08T08:45:28.293Z,7244.00
2018-07-08T08:47:21.603Z,7252.00
2018-07-08T08:48:21.530Z,7284.00
2018-07-08T08:50:14.858Z,7264.00
2018-07-08T08:51:14.770Z,7268.00
2018-07-08T08:53:08.056Z,7212.00
2018-07-08T08:54:07.999Z,7216.00
2018-07-08T08:56:01.307Z,7204.00
2018-07-08T08:57:01.232Z,7216.00
2018-07-08T08:58:54.523Z,7236.00
2018-07-08T08:59:54.466Z,7276.00
2018-07-08T09:01:48.774Z,7280.00
2018-07-08T09:02:48.702Z,7276.00
2018-07-08T09:04:41.991Z,7284.00
2018-07-08T09:05:41.936Z,7304.00
2018-07-08T09:07:35.344Z,7316.00
2018-07-08T09:08:35.168Z,7340.00
2018-07-08T09:10:28.479Z,7340.00
2018-07-08T09:11:28.404Z,7360.00
2018-07-08T09:13:21.697Z,7380.00
2018-07-08T09:14:21.639Z,7388.00
2018-07-08T09:16:15.049Z,7424.00
2018-07-08T09:17:14.923Z,7468.00
2018-07-08T09:19:08.165Z,7452.00
2018-07-08T09:20:08.108Z,7468.00
2018-07-08T09:22:01.417Z,7468.00
2018-07-08T09:23:01.347Z,7464.00
2018-07-08T09:24:54.636Z,7488.00
2018-07-08T09:25:54.581Z,7512.00
2018-07-08T09:27:47.889Z,7560.00
2018-07-08T09:28:47.820Z,7528.00
2018-07-08T09:30:41.120Z,7532.00
2018-07-08T09:31:41.048Z,7536.00
2018-07-08T09:33:34.347Z,7500.00
2018-07-08T09:34:34.293Z,7496.00
2018-07-08T09:36:27.605Z,7476.00
2018-07-08T09:37:27.530Z,7484.00
2018-07-08T09:39:20.878Z,7468.00
2018-07-08T09:40:20.762Z,7460.00
2018-07-08T09:42:14.183Z,7472.00
2018-07-08T09:43:14.006Z,7476.00
2018-07-08T09:45:07.297Z,7472.00
2018-07-08T09:46:07.247Z,7472.00
2018-07-08T09:48:00.550Z,7484.00
2018-07-08T09:49:00.476Z,7480.00
2018-07-08T09:50:53.892Z,7480.00
2018-07-08T09:51:53.715Z,7480.00
2018-07-08T09:53:47.107Z,7536.00
2018-07-08T09:54:46.954Z,7500.00
2018-07-08T09:56:40.368Z,7532.00
2018-07-08T09:57:40.296Z,7552.00
2018-07-08T09:59:33.582Z,7536.00
2018-07-08T10:00:33.534Z,7540.00
2018-07-08T10:02:26.949Z,7564.00
2018-07-08T10:03:26.776Z,7560.00
2018-07-08T10:05:20.169Z,7568.00
2018-07-08T10:06:20.020Z,7580.00
2018-07-08T10:08:13.331Z,7572.00
2018-07-08T10:09:13.260Z,7584.00
2018-07-08T10:11:06.555Z,7572.00
2018-07-08T10:12:06.507Z,7560.00
2018-07-08T10:13:59.899Z,7552.00
2018-07-08T10:14:59.747Z,7532.00
2018-07-08T10:16:53.073Z,7508.00
2018-07-08T10:17:53.111Z,7540.00
2018-07-08T10:19:46.560Z,7560.00
2018-07-08T10:20:46.299Z,7520.00
2018-07-08T10:22:39.617Z,7492.00
2018-07-08T10:23:39.544Z,7480.00
2018-07-08T10:25:32.843Z,7456.00
2018-07-08T10:26:32.792Z,7456.00
2018-07-08T10:28:26.099Z,7460.00
2018-07-08T10:29:26.030Z,7488.00
2018-07-08T10:31:19.473Z,7488.00
2018-07-08T10:32:19.421Z,7432.00
2018-07-08T10:34:12.742Z,7360.00
2018-07-08T10:35:12.672Z,7364.00
2018-07-08T10:37:05.971Z,7340.00
2018-07-08T10:38:05.921Z,7336.00
2018-07-08T10:39:59.237Z,7340.00
2018-07-08T10:40:59.166Z,7304.00
2018-07-08T10:42:52.485Z,7332.00
2018-07-08T10:43:52.413Z,7324.00
2018-07-08T10:45:45.712Z,7316.00
2018-07-08T10:46:45.663Z,7300.00
2018-07-08T10:48:39.075Z,7308.00
2018-07-08T10:49:38.912Z,7308.00
2018-07-08T10:51:32.211Z,7320.00
2018-07-08T10:52:32.159Z,7364.00
2018-07-08T10:54:25.478Z,7396.00
2018-07-08T10:55:25.427Z,7356.00
2018-07-08T10:57:18.708Z,7328.00
2018-07-08T10:58:18.655Z,7300.00
2018-07-08T11:00:11.972Z,7256.00
2018-07-08T11:01:11.900Z,7232.00
2018-07-08T11:03:05.218Z,7176.00
2018-07-08T11:04:05.150Z,7160.00
2018-07-08T11:05:58.444Z,7156.00
2018-07-08T11:06:58.392Z,7136.00
2018-07-08T11:08:52.709Z,7068.00
2018-07-08T11:09:52.637Z,7048.00
2018-07-08T11:11:45.937Z,6992.00
2018-07-08T11:12:45.883Z,6976.00
2018-07-08T11:14:39.199Z,6948.00
2018-07-08T11:15:39.129Z,6920.00
2018-07-08T11:17:32.427Z,6948.00
2018-07-08T11:18:32.375Z,6884.00
2018-07-08T11:20:25.697Z,6836.00
2018-07-08T11:21:25.631Z,6812.00
2018-07-08T11:23:18.922Z,6780.00
2018-07-08T11:24:18.870Z,6740.00
2018-07-08T11:26:12.187Z,6652.00
2018-07-08T11:27:12.119Z,6608.00
2018-07-08T11:29:06.442Z,6452.00
2018-07-08T11:30:06.371Z,6400.00
2018-07-08T11:31:59.671Z,6248.00
2018-07-08T11:32:59.612Z,6156.00
2018-07-08T11:34:52.931Z,5932.00
2018-07-08T11:35:52.862Z,5876.00
2018-07-08T11:37:46.157Z,5712.00
2018-07-08T11:38:46.115Z,5688.00
2018-07-08T11:40:39.427Z,5664.00
2018-07-08T11:41:39.355Z,5648.00
2018-07-08T11:43:32.654Z,5632.00
2018-07-08T11:44:32.601Z,5592.00
2018-07-08T11:46:25.921Z,5548.00
2018-07-08T11:47:25.847Z,5544.00
2018-07-08T11:49:19.165Z,5412.00
2018-07-08T11:50:19.097Z,5368.00
2018-07-08T11:52:12.396Z,5324.00
2018-07-08T11:53:12.338Z,5320.00
2018-07-08T11:55:05.655Z,5296.00
2018-07-08T11:56:05.584Z,5292.00
2018-07-08T11:57:58.872Z,5272.00
2018-07-08T11:58:58.820Z,5260.00
2018-07-08T12:00:52.234Z,5260.00
2018-07-08T12:01:52.107Z,5256.00
2018-07-08T12:03:45.451Z,5260.00
2018-07-08T12:04:45.302Z,5248.00
2018-07-08T12:06:38.610Z,5260.00
2018-07-08T12:07:38.539Z,5244.00
2018-07-08T12:09:31.830Z,5240.00
2018-07-08T12:10:31.775Z,5240.00
2018-07-08T12:12:25.089Z,5252.00
2018-07-08T12:13:25.013Z,5220.00
2018-07-08T12:15:18.425Z,5216.00
2018-07-08T12:16:18.250Z,5216.00
2018-07-08T12:18:11.532Z,5208.00
2018-07-08T12:19:11.480Z,5212.00
2018-07-08T12:21:04.950Z,5184.00
2018-07-08T12:22:04.715Z,5168.00
2018-07-08T12:23:58.000Z,5168.00
2018-07-08T12:24:57.953Z,5168.00
2018-07-08T12:26:51.261Z,5180.00
2018-07-08T12:27:51.196Z,5176.00
2018-07-08T12:29:44.478Z,5136.00
2018-07-08T12:30:44.422Z,5160.00
2018-07-08T12:32:37.730Z,5140.00
2018-07-08T12:33:37.655Z,5136.00
2018-07-08T12:35:30.966Z,5132.00
2018-07-08T12:36:30.890Z,5104.00
2018-07-08T12:38:24.173Z,5100.00
2018-07-08T12:39:24.120Z,5128.00
2018-07-08T12:41:17.427Z,5064.00
2018-07-08T12:42:17.354Z,5064.00
2018-07-08T12:44:10.728Z,5036.00
2018-07-08T12:45:10.585Z,5012.00
2018-07-08T12:47:03.898Z,5000.00
2018-07-08T12:48:03.823Z,5008.00
2018-07-08T12:49:57.114Z,4952.00
2018-07-08T12:50:57.063Z,4964.00
2018-07-08T12:52:50.368Z,4948.00
2018-07-08T12:53:50.298Z,4928.00
2018-07-08T12:55:43.610Z,4860.00
2018-07-08T12:56:43.535Z,4868.00
2018-07-08T12:58:37.858Z,4916.00
2018-07-08T12:59:37.772Z,4900.00
2018-07-08T13:01:31.080Z,4868.00
2018-07-08T13:02:31.007Z,4856.00
2018-07-08T13:04:24.323Z,4852.00
2018-07-08T13:05:24.241Z,4828.00
2018-07-08T13:07:17.557Z,4816.00
2018-07-08T13:08:17.487Z,4816.00
2018-07-08T13:10:10.777Z,4812.00
2018-07-08T13:11:10.718Z,4820.00
2018-07-08T13:13:04.030Z,4812.00
2018-07-08T13:14:03.957Z,4784.00
2018-07-08T13:15:57.367Z,4764.00
2018-07-08T13:16:57.296Z,4756.00
2018-07-08T13:18:50.585Z,4772.00
2018-07-08T13:19:50.567Z,4756.00
2018-07-08T13:21:44.842Z,4748.00
2018-07-08T13:22:44.768Z,4740.00
2018-07-08T13:24:38.059Z,4712.00
2018-07-08T13:25:38.007Z,4720.00
2018-07-08T13:27:31.368Z,4684.00
2018-07-08T13:28:31.300Z,4676.00
2018-07-08T13:30:24.686Z,4676.00
2018-07-08T13:31:24.533Z,4684.00
2018-07-08T13:33:17.842Z,4664.00
2018-07-08T13:34:17.771Z,4656.00
2018-07-08T13:36:11.181Z,4632.00
2018-07-08T13:37:11.009Z,4648.00
2018-07-08T13:39:04.348Z,4620.00
2018-07-08T13:40:04.244Z,4608.00
2018-07-08T13:41:57.589Z,4612.00
2018-07-08T13:42:57.503Z,4616.00
2018-07-08T13:44:50.775Z,4596.00
2018-07-08T13:45:50.718Z,4604.00
2018-07-08T13:47:44.036Z,4584.00
2018-07-08T13:48:43.959Z,4572.00
2018-07-08T13:50:37.360Z,4572.00
2018-07-08T13:51:37.296Z,4576.00
2018-07-08T13:53:30.602Z,4612.00
2018-07-08T13:54:30.531Z,4544.00
2018-07-08T13:56:23.822Z,4524.00
2018-07-08T13:57:23.773Z,4520.00
2018-07-08T13:59:17.089Z,4512.00
2018-07-08T14:00:17.007Z,4480.00
2018-07-08T14:02:10.313Z,4448.00
2018-07-08T14:03:10.242Z,4416.00
2018-07-08T14:05:03.536Z,4396.00
2018-07-08T14:06:03.487Z,4404.00
2018-07-08T14:07:56.831Z,4396.00
2018-07-08T14:08:56.721Z,4400.00
2018-07-08T14:10:50.017Z,4396.00
2018-07-08T14:11:49.956Z,4364.00
2018-07-08T14:13:44.366Z,4340.00
2018-07-08T14:14:44.253Z,4328.00
2018-07-08T14:16:37.535Z,4324.00
2018-07-08T14:17:37.434Z,4328.00
2018-07-08T14:19:30.720Z,4336.00
2018-07-08T14:20:30.721Z,4328.00
2018-07-08T14:22:23.976Z,4320.00
2018-07-08T14:23:23.904Z,4292.00
2018-07-08T14:25:17.200Z,4288.00
2018-07-08T14:26:17.143Z,4276.00
2018-07-08T14:28:09.954Z,4292.00
2018-07-08T14:29:09.882Z,4276.00
2018-07-08T14:31:03.281Z,4248.00
2018-07-08T14:32:03.118Z,4272.00
2018-07-08T14:33:56.444Z,4248.00
2018-07-08T14:34:56.522Z,4232.00
2018-07-08T14:36:49.764Z,4224.00
2018-07-08T14:37:49.590Z,4184.00
2018-07-08T14:39:42.907Z,4184.00
2018-07-08T14:40:42.882Z,4180.00
2018-07-08T14:42:36.158Z,4148.00
2018-07-08T14:43:36.071Z,4136.00
2018-07-08T14:45:29.359Z,4096.00
2018-07-08T14:46:29.301Z,4184.00
2018-07-08T14:48:22.615Z,4084.00
2018-07-08T14:49:22.541Z,4092.00
2018-07-08T14:51:15.839Z,4096.00
2018-07-08T14:52:15.786Z,4116.00
2018-07-08T14:54:09.088Z,4096.00
2018-07-08T14:55:09.012Z,4028.00
2018-07-08T14:57:02.301Z,4048.00
2018-07-08T14:58:02.252Z,4036.00
2018-07-08T14:59:55.584Z,4032.00
2018-07-08T15:00:55.502Z,4040.00
2018-07-08T15:02:48.805Z,4044.00
2018-07-08T15:03:48.737Z,4056.00
2018-07-08T15:05:42.126Z,4088.00
2018-07-08T15:06:41.969Z,4072.00
2018-07-08T15:08:35.370Z,4044.00
2018-07-08T15:09:35.296Z,3992.00
2018-07-08T15:11:28.601Z,4004.00
2018-07-08T15:12:28.582Z,4004.00
2018-07-08T15:14:21.845Z,3980.00
2018-07-08T15:15:21.782Z,3960.00
2018-07-08T15:17:15.063Z,3944.00
2018-07-08T15:18:15.010Z,3932.00
2018-07-08T15:20:08.352Z,3936.00
2018-07-08T15:21:08.295Z,3944.00
2018-07-08T15:23:01.557Z,3952.00
2018-07-08T15:24:01.484Z,3888.00
2018-07-08T15:25:54.775Z,3864.00
2018-07-08T15:26:54.722Z,3876.00
2018-07-08T15:28:48.049Z,3820.00
2018-07-08T15:29:47.965Z,3836.00
2018-07-08T15:31:41.351Z,4024.00
2018-07-08T15:32:41.295Z,3644.00
2018-07-08T15:34:34.704Z,3856.00
2018-07-08T15:35:34.554Z,3900.00
2018-07-08T15:37:27.878Z,3884.00
2018-07-08T15:38:27.811Z,3576.00
2018-07-08T15:40:21.111Z,3096.00
2018-07-08T15:41:21.038Z,3908.00
2018-07-08T15:43:14.349Z,3880.00
2018-07-08T15:44:14.273Z,3808.00
2018-07-08T15:46:07.674Z,3812.00
2018-07-08T15:47:07.574Z,3376.00
2018-07-08T15:49:00.825Z,3704.00
2018-07-08T15:50:00.751Z,3884.00
2018-07-08T15:51:54.051Z,3772.00
2018-07-08T15:52:53.997Z,3752.00
2018-07-08T15:54:47.386Z,3724.00
2018-07-08T15:55:47.298Z,3700.00
2018-07-08T15:57:41.586Z,3680.00
2018-07-08T15:58:41.531Z,3692.00
2018-07-08T16:00:34.840Z,3680.00
2018-07-08T16:01:34.771Z,3680.00
2018-07-08T16:03:28.059Z,3716.00
2018-07-08T16:04:28.003Z,3644.00
2018-07-08T16:06:21.429Z,3560.00
2018-07-08T16:07:21.289Z,3616.00
2018-07-08T16:09:14.605Z,3656.00
2018-07-08T16:10:14.530Z,3672.00
2018-07-08T16:12:07.823Z,3812.00
2018-07-08T16:13:07.767Z,4084.00
2018-07-08T16:15:01.077Z,3824.00
2018-07-08T16:16:01.005Z,3732.00
2018-07-08T16:17:54.288Z,3680.00
2018-07-08T16:18:54.271Z,3616.00
2018-07-08T16:20:47.546Z,3532.00
2018-07-08T16:21:47.472Z,3504.00
2018-07-08T16:23:40.768Z,3440.00
2018-07-08T16:24:40.757Z,3412.00
2018-07-08T16:26:34.021Z,3332.00
2018-07-08T16:27:33.948Z,3328.00
2018-07-08T16:29:27.373Z,3264.00
2018-07-08T16:30:27.297Z,3276.00
2018-07-08T16:32:20.590Z,3248.00
2018-07-08T16:33:20.531Z,3216.00
2018-07-08T16:35:13.846Z,3244.00
2018-07-08T16:36:13.768Z,3268.00
2018-07-08T16:38:07.050Z,3256.00
2018-07-08T16:39:06.996Z,3272.00
2018-07-08T16:41:00.307Z,3256.00
2018-07-08T16:42:00.232Z,3308.00
2018-07-08T16:43:53.526Z,3220.00
2018-07-08T16:44:53.470Z,3192.00
2018-07-08T16:46:46.779Z,3136.00
2018-07-08T16:47:46.702Z,3132.00
2018-07-08T16:49:40.032Z,3108.00
2018-07-08T16:50:39.947Z,3104.00
2018-07-08T16:52:33.235Z,3052.00
2018-07-08T16:53:33.180Z,3032.00
2018-07-08T16:55:26.493Z,2980.00
2018-07-08T16:56:26.424Z,3012.00
2018-07-08T16:58:19.697Z,3036.00
2018-07-08T16:59:19.647Z,3060.00
2018-07-08T17:01:12.958Z,3208.00
2018-07-08T17:02:12.951Z,3240.00
2018-07-08T17:04:06.199Z,3176.00
2018-07-08T17:05:06.120Z,3300.00
2018-07-08T17:06:59.438Z,3612.00
2018-07-08T17:07:59.360Z,3164.00
2018-07-08T17:09:52.679Z,2888.00
2018-07-08T17:10:52.595Z,2824.00
2018-07-08T17:12:45.891Z,2660.00
2018-07-08T17:13:45.832Z,2624.00
2018-07-08T17:15:39.148Z,2580.00
2018-07-08T17:16:39.072Z,2580.00
2018-07-08T17:18:32.361Z,2556.00
2018-07-08T17:19:32.302Z,2540.00
2018-07-08T17:21:25.617Z,2560.00
2018-07-08T17:22:25.541Z,2564.00
2018-07-08T17:24:18.932Z,2652.00
2018-07-08T17:25:18.778Z,2660.00
2018-07-08T17:27:12.089Z,2544.00
2018-07-08T17:28:12.016Z,2452.00
2018-07-08T17:30:05.355Z,2340.00
2018-07-08T17:31:05.296Z,2304.00
2018-07-08T17:32:58.627Z,2264.00
2018-07-08T17:33:58.553Z,2224.00
2018-07-08T17:35:51.866Z,2180.00
2018-07-08T17:36:51.789Z,2160.00
2018-07-08T17:38:45.071Z,2112.00
2018-07-08T17:39:45.018Z,2096.00
2018-07-08T17:41:38.326Z,2052.00
2018-07-08T17:42:38.254Z,2068.00
2018-07-08T17:44:32.585Z,2000.00
2018-07-08T17:45:32.529Z,1984.00
2018-07-08T17:47:26.896Z,1936.00